createdAt,value
2023-03-21T00:02:06.064Z,83.68
2023-03-21T00:07:08.483Z,83.64
2023-03-21T00:12:14.765Z,84.21
2023-03-21T00:17:33.307Z,84.68
2023-03-21T00:22:36.166Z,85.03
2023-03-21T00:27:57.245Z,85.02
2023-03-21T00:33:21.722Z,85.09
2023-03-21T00:38:26.704Z,85.19
2023-03-21T00:43:32.926Z,85.27
2023-03-21T00:48:45.969Z,85.65
2023-03-21T00:53:49.701Z,85.59
2023-03-21T00:58:52.588Z,85.44
2023-03-21T01:04:05.345Z,85.72
2023-03-21T01:09:27.241Z,85.46
2023-03-21T01:14:44.863Z,85.44
2023-03-21T01:19:52.539Z,85.67
2023-03-21T01:25:19.314Z,85.79
2023-03-21T01:30:33.916Z,85.59
2023-03-21T01:36:09.997Z,85.62
2023-03-21T01:41:45.830Z,85.45
2023-03-21T01:47:18.937Z,85.50
2023-03-21T01:52:42.002Z,85.85
2023-03-21T01:58:07.424Z,85.95
2023-03-21T02:03:50.077Z,85.82
2023-03-21T02:09:29.057Z,86.12
2023-03-21T02:14:36.594Z,85.93
2023-03-21T02:19:55.978Z,86.44
2023-03-21T02:25:40.000Z,86.51
2023-03-21T02:31:46.664Z,86.23
2023-03-21T02:37:11.384Z,86.78
2023-03-21T02:42:22.864Z,86.84
2023-03-21T02:47:53.135Z,86.79
2023-03-21T02:53:20.168Z,87.00
2023-03-21T02:58:32.888Z,86.98
2023-03-21T03:04:04.757Z,87.24
2023-03-21T03:09:58.895Z,87.07
2023-03-21T03:15:25.230Z,87.64
2023-03-21T03:21:39.098Z,87.84
2023-03-21T03:27:23.430Z,87.50
2023-03-21T03:33:09.454Z,87.34
2023-03-21T03:38:45.055Z,87.28
2023-03-21T03:44:26.106Z,87.53
2023-03-21T03:50:26.684Z,87.71
2023-03-21T03:55:49.900Z,87.86
2023-03-21T04:01:00.660Z,87.61
2023-03-21T04:06:29.104Z,87.98
2023-03-21T04:12:13.453Z,88.37
2023-03-21T04:17:30.874Z,88.17
2023-03-21T04:22:46.265Z,87.75
2023-03-21T04:28:06.776Z,88.00
2023-03-21T04:33:38.512Z,87.81
2023-03-21T04:39:12.957Z,88.08
2023-03-21T04:44:40.946Z,87.96
2023-03-21T04:49:56.397Z,88.25
2023-03-21T04:55:10.422Z,88.09
2023-03-21T05:00:30.294Z,88.07
2023-03-21T05:05:54.468Z,87.84
2023-03-21T05:10:57.940Z,88.14
2023-03-21T05:16:04.088Z,88.16
2023-03-21T05:21:30.178Z,88.19
2023-03-21T05:26:32.994Z,88.07
2023-03-21T05:31:50.349Z,88.51
2023-03-21T05:37:07.306Z,88.36
2023-03-21T05:42:21.476Z,88.20
2023-03-21T05:47:26.857Z,88.27
2023-03-21T05:52:35.612Z,88.44
2023-03-21T05:57:44.861Z,88.27
2023-03-21T06:03:14.325Z,88.67
2023-03-21T06:09:28.790Z,88.38
2023-03-21T06:14:33.811Z,88.42
2023-03-21T06:20:10.619Z,88.63
2023-03-21T06:25:26.799Z,88.45
2023-03-21T06:30:34.372Z,88.31
2023-03-21T06:36:10.286Z,88.75
2023-03-21T06:41:55.928Z,87.92
2023-03-21T06:47:08.906Z,88.34
2023-03-21T06:52:15.372Z,88.05
2023-03-21T06:57:46.524Z,87.86
2023-03-21T07:02:53.831Z,88.19
2023-03-21T07:08:03.645Z,88.35
2023-03-21T07:13:12.016Z,88.20
2023-03-21T07:18:43.297Z,88.47
2023-03-21T07:23:52.224Z,87.67
2023-03-21T07:29:00.685Z,87.84
2023-03-21T07:34:23.887Z,87.70
2023-03-21T07:39:34.780Z,88.33
2023-03-21T07:45:10.651Z,87.71
2023-03-21T07:50:49.165Z,87.23
2023-03-21T07:56:03.337Z,87.32
2023-03-21T08:01:08.805Z,86.91
2023-03-21T08:06:31.298Z,86.97
2023-03-21T08:11:33.806Z,87.22
2023-03-21T08:16:36.628Z,86.92
2023-03-21T08:21:40.104Z,86.68
2023-03-21T08:26:46.091Z,86.30
2023-03-21T08:31:56.255Z,86.73
2023-03-21T08:37:03.022Z,86.45
2023-03-21T08:42:05.969Z,86.13
2023-03-21T08:47:20.439Z,85.79
2023-03-21T08:52:23.830Z,85.76
2023-03-21T08:57:29.128Z,85.46
2023-03-21T09:02:31.907Z,85.72
2023-03-21T09:07:50.662Z,85.64
2023-03-21T09:12:55.918Z,85.20
2023-03-21T09:18:13.157Z,84.60
2023-03-21T09:23:32.049Z,84.62
2023-03-21T09:28:43.268Z,84.21
2023-03-21T09:33:46.384Z,83.91
2023-03-21T09:38:52.602Z,83.64
2023-03-21T09:44:14.437Z,83.83
2023-03-21T09:50:17.268Z,83.53
2023-03-21T09:55:36.696Z,83.50
2023-03-21T10:00:48.653Z,83.54
2023-03-21T10:06:01.163Z,83.27
2023-03-21T10:11:34.849Z,82.72
2023-03-21T10:16:59.746Z,82.55
2023-03-21T10:22:05.462Z,82.52
2023-03-21T10:27:09.954Z,82.41
2023-03-21T10:32:25.346Z,82.26
2023-03-21T10:37:30.730Z,82.01
2023-03-21T10:42:50.403Z,82.16
2023-03-21T10:47:55.918Z,81.79
2023-03-21T10:53:01.837Z,81.56
2023-03-21T10:58:10.915Z,81.15
2023-03-21T11:03:34.255Z,80.38
2023-03-21T11:09:03.816Z,79.98
2023-03-21T11:14:09.584Z,78.97
2023-03-21T11:19:16.151Z,79.36
2023-03-21T11:24:20.200Z,79.41
2023-03-21T11:29:39.278Z,79.94
2023-03-21T11:34:48.836Z,79.33
2023-03-21T11:40:36.438Z,79.14
2023-03-21T11:45:58.826Z,79.04
2023-03-21T11:51:19.224Z,79.31
2023-03-21T11:56:49.551Z,78.94
2023-03-21T12:02:16.528Z,78.99
2023-03-21T12:07:44.166Z,79.10
2023-03-21T12:13:03.926Z,79.34
2023-03-21T12:19:00.919Z,78.94
2023-03-21T12:24:18.614Z,78.65
2023-03-21T12:29:28.185Z,78.75
2023-03-21T12:34:36.615Z,78.42
2023-03-21T12:39:40.875Z,78.11
2023-03-21T12:44:52.359Z,78.77
2023-03-21T12:50:13.906Z,78.64
2023-03-21T12:55:23.963Z,78.35
2023-03-21T13:00:28.758Z,78.15
2023-03-21T13:05:55.207Z,78.13
2023-03-21T13:11:00.254Z,77.78
2023-03-21T13:16:23.556Z,77.90
2023-03-21T13:21:55.786Z,77.46
2023-03-21T13:27:21.105Z,77.36
2023-03-21T13:32:39.179Z,77.13
2023-03-21T13:37:51.817Z,76.90
2023-03-21T13:43:22.113Z,76.00
2023-03-21T13:48:49.431Z,75.05
2023-03-21T13:54:17.642Z,74.26
2023-03-21T13:59:38.328Z,74.47
2023-03-21T14:05:00.191Z,74.69
2023-03-21T14:10:35.675Z,73.92
2023-03-21T14:16:12.765Z,73.95
2023-03-21T14:21:24.370Z,74.16
2023-03-21T14:32:24.904Z,74.21
2023-03-21T14:37:41.164Z,73.86
2023-03-21T14:42:48.500Z,73.56
2023-03-21T14:48:18.837Z,73.92
2023-03-21T14:53:30.577Z,73.84
2023-03-21T14:58:46.200Z,74.48
2023-03-21T15:03:53.099Z,74.23
2023-03-21T15:09:04.192Z,74.27
2023-03-21T15:14:30.385Z,74.89
2023-03-21T15:19:37.418Z,75.67
2023-03-21T15:24:55.913Z,75.73
2023-03-21T15:29:58.807Z,75.99
2023-03-21T15:35:08.705Z,76.72
2023-03-21T15:40:37.414Z,76.98
2023-03-21T15:45:56.202Z,77.12
2023-03-21T15:51:05.978Z,77.06
2023-03-21T15:56:20.263Z,77.37
2023-03-21T16:01:26.553Z,77.42
2023-03-21T16:06:35.221Z,77.79
2023-03-21T16:11:49.392Z,78.16
2023-03-21T16:16:51.660Z,77.88
2023-03-21T16:21:54.262Z,78.24
2023-03-21T16:26:59.314Z,78.69
2023-03-21T16:32:06.136Z,78.77
2023-03-21T16:37:12.367Z,78.99
2023-03-21T16:42:14.633Z,79.43
2023-03-21T16:47:23.840Z,79.26
2023-03-21T16:52:50.418Z,79.28
2023-03-21T16:57:53.982Z,79.30
2023-03-21T17:03:03.018Z,79.77
2023-03-21T17:08:06.513Z,79.59
2023-03-21T17:13:08.676Z,79.97
2023-03-21T17:18:21.204Z,80.28
2023-03-21T17:23:23.542Z,80.17
2023-03-21T17:28:28.243Z,80.57
2023-03-21T17:33:33.246Z,80.47
2023-03-21T17:38:51.564Z,80.65
2023-03-21T17:44:03.126Z,80.81
2023-03-21T17:49:06.525Z,80.61
2023-03-21T17:54:09.484Z,80.91
2023-03-21T17:59:14.258Z,80.84
2023-03-21T18:04:21.581Z,80.79
2023-03-21T18:09:58.014Z,80.76
2023-03-21T18:15:04.196Z,81.26
2023-03-21T18:20:10.339Z,80.98
2023-03-21T18:25:20.519Z,81.54
2023-03-21T18:30:56.937Z,81.52
2023-03-21T18:36:13.600Z,82.00
2023-03-21T18:41:19.829Z,81.73
2023-03-21T18:46:30.518Z,81.89
2023-03-21T18:51:33.014Z,82.16
2023-03-21T18:57:27.464Z,82.22
2023-03-21T19:02:03.237Z,82.28
2023-03-21T19:07:08.091Z,82.66
2023-03-21T19:12:10.556Z,82.89
2023-03-21T19:18:15.299Z,82.85
2023-03-21T19:22:45.157Z,82.84
2023-03-21T19:28:00.738Z,82.74
2023-03-21T19:33:05.302Z,83.19
2023-03-21T19:38:07.926Z,82.92
2023-03-21T19:43:32.126Z,82.74
2023-03-21T19:48:44.814Z,83.30
2023-03-21T19:53:50.318Z,83.53
2023-03-21T19:58:52.995Z,83.63
2023-03-21T20:03:58.798Z,83.66
2023-03-21T20:14:24.871Z,83.80
2023-03-21T20:19:27.239Z,84.28
2023-03-21T20:24:31.648Z,83.97
2023-03-21T20:30:10.777Z,84.06
2023-03-21T20:36:16.392Z,84.19
2023-03-21T20:40:55.369Z,84.05
2023-03-21T20:46:12.793Z,84.29
2023-03-21T20:56:42.895Z,84.46
2023-03-21T21:01:45.230Z,84.03
2023-03-21T21:06:50.903Z,84.20
2023-03-21T21:12:06.562Z,84.02
2023-03-21T21:22:59.649Z,83.89
2023-03-21T21:28:09.170Z,83.88
2023-03-21T21:33:11.473Z,84.53
2023-03-21T21:38:23.443Z,83.81
2023-03-21T21:43:27.842Z,83.77
2023-03-21T21:48:34.124Z,84.14
2023-03-21T21:53:36.951Z,83.95
2023-03-21T21:58:46.089Z,84.16
2023-03-21T22:03:48.684Z,83.95
2023-03-21T22:08:52.133Z,84.24
2023-03-21T22:14:01.686Z,84.45
2023-03-21T22:19:04.305Z,84.41
2023-03-21T22:24:09.803Z,83.84
2023-03-21T22:29:14.645Z,84.25
2023-03-21T22:34:17.140Z,84.20
2023-03-21T22:39:26.481Z,84.39
2023-03-21T22:44:38.934Z,84.31
2023-03-21T22:49:46.368Z,84.53
2023-03-21T22:54:55.662Z,84.39
2023-03-21T23:00:01.454Z,84.91
2023-03-21T23:05:08.971Z,84.66
2023-03-21T23:10:13.446Z,85.10
2023-03-21T23:15:25.429Z,85.12
2023-03-21T23:20:27.627Z,84.88
2023-03-21T23:25:55.739Z,85.08
2023-03-21T23:30:58.210Z,84.77
2023-03-21T23:36:03.435Z,84.75
2023-03-21T23:41:18.950Z,85.07
2023-03-21T23:46:23.686Z,85.50
2023-03-21T23:51:28.889Z,85.30
2023-03-21T23:56:35.763Z,85.45
